Time;durP1;ratioP1;P1;durP2;ratioP2;P2;SDS_P1;SDS_P2;PMS_P1;PMS_P2;Temp;Humidity;BMP_temperature;BMP_pressure;BME280_temperature;BME280_humidity;BME280_pressure;Samples;Min_cycle;Max_cycle;Signal;HPM_P1;HPM_P2
2021/09/15 00:00:58;;;;;;;14.10;11.00;;;;;;;17.12;80.84;98025.94;5141095;28;20059;-85
2021/09/15 00:03:23;;;;;;;15.38;10.95;;;;;;;17.18;80.77;98026.56;5141199;28;20035;-84
2021/09/15 00:05:49;;;;;;;14.50;11.95;;;;;;;17.12;80.88;98025.94;5141553;28;20038;-84
2021/09/15 00:08:14;;;;;;;13.18;11.77;;;;;;;17.12;81.19;98027.91;5141020;27;20062;-85
2021/09/15 00:10:40;;;;;;;14.02;11.40;;;;;;;16.87;83.05;98031.63;5141297;28;20032;-86
2021/09/15 00:13:05;;;;;;;16.38;11.50;;;;;;;16.92;83.47;98032.25;5141589;28;20012;-83
2021/09/15 00:15:31;;;;;;;17.40;12.82;;;;;;;16.97;83.13;98025.72;5141934;28;20011;-79
2021/09/15 00:17:56;;;;;;;13.18;10.30;;;;;;;16.79;82.73;98025.00;5141696;28;20007;-82
2021/09/15 00:20:22;;;;;;;16.25;10.93;;;;;;;16.90;82.95;98026.25;5140625;28;20043;-84
2021/09/15 00:22:47;;;;;;;11.93;9.43;;;;;;;16.67;83.03;98018.56;5123075;28;20032;-82
2021/09/15 00:25:13;;;;;;;11.55;10.35;;;;;;;16.57;83.33;98023.34;5140962;28;20015;-88
2021/09/15 00:27:39;;;;;;;13.13;10.35;;;;;;;16.66;82.51;98022.50;5141089;28;20037;-87
2021/09/15 00:30:05;;;;;;;13.60;9.50;;;;;;;16.63;82.63;98023.16;5140837;28;20020;-82
2021/09/15 00:32:30;;;;;;;11.52;9.48;;;;;;;16.60;82.85;98019.91;5141336;28;20032;-86
2021/09/15 00:34:56;;;;;;;13.82;10.85;;;;;;;16.73;82.18;98020.81;5140007;28;20019;-87
2021/09/15 00:37:21;;;;;;;12.05;9.57;;;;;;;16.62;82.81;98025.13;5140368;28;20008;-85
2021/09/15 00:39:46;;;;;;;13.35;9.88;;;;;;;16.52;83.09;98015.22;5140103;28;20039;-87
2021/09/15 00:42:12;;;;;;;16.17;11.20;;;;;;;16.51;83.53;98018.28;5139935;28;20051;-85
2021/09/15 00:44:37;;;;;;;12.02;10.65;;;;;;;16.38;84.22;98016.59;5139860;28;20043;-84
2021/09/15 00:47:03;;;;;;;12.95;9.60;;;;;;;16.43;84.08;98017.22;5140549;28;20007;-80
2021/09/15 00:49:28;;;;;;;15.48;10.63;;;;;;;16.45;84.35;98020.44;5141118;28;20028;-88
2021/09/15 00:51:54;;;;;;;14.38;9.90;;;;;;;16.41;84.33;98013.97;5139518;28;20011;-88
2021/09/15 00:54:19;;;;;;;13.60;11.32;;;;;;;16.27;85.45;98013.38;5140292;28;20037;-89
2021/09/15 00:56:46;;;;;;;11.93;10.63;;;;;;;16.31;85.02;98013.53;5139810;28;20023;-87
2021/09/15 00:59:12;;;;;;;13.43;11.13;;;;;;;16.46;84.63;98015.75;5139698;28;20041;-89
2021/09/15 01:01:38;;;;;;;12.65;10.65;;;;;;;16.38;84.77;98013.84;5140183;28;20035;-91
2021/09/15 01:04:04;;;;;;;13.20;11.73;;;;;;;16.20;85.83;98007.56;5139541;28;20041;-89
2021/09/15 01:06:32;;;;;;;11.95;10.50;;;;;;;16.08;86.99;98008.25;5139985;28;20161;-86
2021/09/15 01:09:04;;;;;;;18.25;12.43;;;;;;;15.95;88.51;98013.97;5140067;28;20019;-80
2021/09/15 01:11:34;;;;;;;17.88;13.20;;;;;;;15.98;88.93;98011.38;5140771;28;20039;-79
2021/09/15 01:14:01;;;;;;;19.85;14.07;;;;;;;16.01;89.59;98010.69;5140093;28;20020;-81
2021/09/15 01:16:26;;;;;;;14.50;12.98;;;;;;;15.97;90.67;98009.75;5157022;27;20035;-88
2021/09/15 01:18:52;;;;;;;18.00;14.15;;;;;;;16.08;90.23;98015.72;5139812;28;20028;-84
2021/09/15 01:21:17;;;;;;;15.93;13.57;;;;;;;16.25;89.14;98014.84;5140087;28;20012;-79
2021/09/15 01:23:43;;;;;;;15.52;13.05;;;;;;;16.13;89.44;98006.47;5157072;27;20045;-78
2021/09/15 01:26:08;;;;;;;15.45;13.85;;;;;;;15.91;91.27;98013.81;5140337;28;20028;-82
2021/09/15 01:28:33;;;;;;;17.08;13.50;;;;;;;15.86;91.81;98014.00;5139935;28;20018;-86
2021/09/15 01:30:59;;;;;;;27.92;13.88;;;;;;;16.04;90.79;98010.03;5138284;28;20424;-90
2021/09/15 01:33:25;;;;;;;24.80;14.48;;;;;;;16.20;89.77;98012.25;5139922;28;20035;-87
2021/09/15 01:35:50;;;;;;;20.00;12.88;;;;;;;15.88;91.08;97994.38;5139510;28;20033;-84
2021/09/15 01:38:17;;;;;;;21.45;13.90;;;;;;;15.86;92.30;98007.66;5139327;28;20083;-86
2021/09/15 01:40:42;;;;;;;19.80;13.20;;;;;;;15.92;91.94;98007.16;5138963;28;20027;-84
2021/09/15 01:43:14;;;;;;;15.65;14.02;;;;;;;15.84;92.49;97996.97;5138832;28;20014;-87
2021/09/15 01:45:39;;;;;;;15.80;12.90;;;;;;;15.82;92.36;97992.94;5138905;28;20027;-83
2021/09/15 01:48:05;;;;;;;15.48;13.30;;;;;;;15.84;92.88;98004.44;5138875;28;20016;-81
2021/09/15 01:50:30;;;;;;;18.58;13.85;;;;;;;15.70;94.23;97996.34;5156427;27;20012;-89
2021/09/15 01:52:56;;;;;;;21.75;13.57;;;;;;;15.69;94.69;97997.50;5139024;28;20004;-80
2021/09/15 01:55:24;;;;;;;17.05;14.27;;;;;;;15.72;94.90;98001.53;5139170;28;20019;-86
2021/09/15 01:57:50;;;;;;;18.73;13.82;;;;;;;15.81;94.56;98005.91;5138849;28;20012;-86
2021/09/15 02:00:16;;;;;;;18.33;13.95;;;;;;;15.88;93.66;97994.38;5139316;28;20032;-83
2021/09/15 02:02:43;;;;;;;21.15;14.48;;;;;;;15.89;93.56;97996.78;5138820;28;20031;-85
2021/09/15 02:05:09;;;;;;;19.30;15.10;;;;;;;15.61;95.10;97979.00;5138545;28;20019;-86
2021/09/15 02:07:34;;;;;;;22.05;16.10;;;;;;;15.53;95.69;97990.88;5137992;28;20003;-87
2021/09/15 02:09:59;;;;;;;17.88;14.40;;;;;;;15.70;95.06;97990.00;5137936;28;20032;-80
2021/09/15 02:12:25;;;;;;;20.55;15.55;;;;;;;15.69;95.12;97985.66;5138583;28;20012;-84
2021/09/15 02:14:50;;;;;;;19.63;15.07;;;;;;;15.74;94.53;97978.00;5139012;28;20050;-83
2021/09/15 02:17:16;;;;;;;25.67;15.57;;;;;;;15.50;95.98;97980.50;5138183;28;20046;-84
2021/09/15 02:19:41;;;;;;;18.65;15.30;;;;;;;15.73;94.77;97978.31;5138483;28;20119;-87
2021/09/15 02:22:07;;;;;;;24.75;16.15;;;;;;;15.71;94.45;97984.19;5138997;28;20028;-87
2021/09/15 02:24:32;;;;;;;19.90;15.25;;;;;;;15.59;95.64;97989.56;5137810;28;20008;-83
2021/09/15 02:26:57;;;;;;;20.27;15.13;;;;;;;15.71;94.73;97969.56;5155112;27;20026;-86
2021/09/15 02:29:23;;;;;;;28.75;14.88;;;;;;;15.78;94.16;97978.97;5138119;28;20105;-83
2021/09/15 02:31:48;;;;;;;17.58;14.73;;;;;;;15.52;95.61;97987.28;5139479;28;20044;-88
2021/09/15 02:34:14;;;;;;;18.88;14.70;;;;;;;15.40;96.78;97989.88;5136129;28;20035;-85
2021/09/15 02:36:39;;;;;;;19.75;15.43;;;;;;;15.56;95.96;97984.69;5138811;28;20039;-84
2021/09/15 02:39:05;;;;;;;24.17;15.05;;;;;;;15.43;96.81;97989.22;5154268;27;20073;-87
2021/09/15 02:41:30;;;;;;;18.35;14.57;;;;;;;15.39;97.55;97988.25;5138360;28;20031;-84
2021/09/15 02:43:55;;;;;;;19.80;14.48;;;;;;;15.24;98.30;97987.94;5138933;28;20008;-83
2021/09/15 02:46:21;;;;;;;19.40;14.20;;;;;;;15.09;99.18;97983.72;5138194;28;20015;-88
2021/09/15 02:48:47;;;;;;;18.33;15.25;;;;;;;14.97;100.00;97989.84;5137832;28;20036;-87
2021/09/15 02:51:12;;;;;;;16.17;14.38;;;;;;;14.99;100.00;98001.38;5137326;28;20007;-89
2021/09/15 02:53:38;;;;;;;23.83;15.60;;;;;;;14.86;100.00;97998.75;5137422;28;20061;-83
2021/09/15 02:56:03;;;;;;;17.80;15.63;;;;;;;14.98;100.00;98005.25;5138259;28;20015;-81
2021/09/15 02:58:29;;;;;;;18.55;15.38;;;;;;;15.10;99.55;98007.38;5137580;28;20011;-82
2021/09/15 03:00:54;;;;;;;21.50;16.60;;;;;;;14.86;100.00;98007.03;5137646;28;20099;-84
2021/09/15 03:03:19;;;;;;;19.80;14.90;;;;;;;15.14;99.61;98000.09;5139002;28;20097;-80
2021/09/15 03:05:45;;;;;;;20.60;15.40;;;;;;;15.38;97.71;98000.41;5138204;28;20110;-84
2021/09/15 03:08:11;;;;;;;20.27;15.13;;;;;;;15.05;99.49;98009.47;5137515;28;20039;-84
2021/09/15 03:10:36;;;;;;;16.92;14.00;;;;;;;14.99;100.00;98006.91;5138533;28;20008;-83
2021/09/15 03:13:02;;;;;;;19.73;16.30;;;;;;;15.00;100.00;98002.97;5137812;28;20470;-81
2021/09/15 03:15:27;;;;;;;17.77;15.05;;;;;;;14.82;100.00;97995.84;5138721;28;20015;-83
2021/09/15 03:17:52;;;;;;;17.63;15.75;;;;;;;14.78;100.00;98002.31;5138272;28;20057;-88
2021/09/15 03:20:18;;;;;;;20.38;15.40;;;;;;;14.67;100.00;97992.72;5136733;28;20019;-88
2021/09/15 03:22:43;;;;;;;17.33;15.55;;;;;;;14.59;100.00;97986.09;5141236;28;20015;-81
2021/09/15 03:25:09;;;;;;;22.38;15.93;;;;;;;14.71;100.00;97985.47;5142325;28;20095;-85
2021/09/15 03:27:35;;;;;;;19.98;17.05;;;;;;;14.71;100.00;97993.72;5141888;28;19999;-84
2021/09/15 03:30:00;;;;;;;24.25;16.90;;;;;;;14.74;100.00;98004.91;5142052;28;20083;-83
2021/09/15 03:32:28;;;;;;;20.95;16.20;;;;;;;14.59;100.00;97990.78;5140346;28;20038;-89
2021/09/15 03:34:54;;;;;;;17.02;14.52;;;;;;;14.62;100.00;97996.47;5141214;28;20388;-83
2021/09/15 03:37:19;;;;;;;20.85;16.38;;;;;;;14.60;100.00;97998.72;5139749;28;20026;-88
2021/09/15 03:39:45;;;;;;;17.60;15.70;;;;;;;14.63;100.00;97998.06;5139507;28;20016;-83
2021/09/15 03:42:10;;;;;;;18.98;16.13;;;;;;;14.67;100.00;97996.31;5141873;28;20027;-79
2021/09/15 03:44:36;;;;;;;19.40;16.58;;;;;;;14.74;100.00;97999.41;5141187;28;20079;-89
2021/09/15 03:47:01;;;;;;;17.38;14.85;;;;;;;14.59;100.00;98008.13;5140604;28;20023;-82
2021/09/15 03:49:27;;;;;;;17.73;15.93;;;;;;;14.51;100.00;98000.63;5141676;28;20023;-84
2021/09/15 03:51:52;;;;;;;24.55;16.55;;;;;;;14.70;100.00;97997.59;5142181;28;20079;-80
2021/09/15 03:54:18;;;;;;;22.58;15.85;;;;;;;14.69;100.00;97996.78;5141943;28;20032;-83
2021/09/15 03:56:43;;;;;;;18.70;15.90;;;;;;;14.65;100.00;98006.03;5140942;28;20435;-82
2021/09/15 03:59:09;;;;;;;26.70;18.55;;;;;;;14.62;100.00;97995.66;5129374;28;20073;-83
2021/09/15 04:01:34;;;;;;;18.98;15.90;;;;;;;14.39;100.00;98000.44;5124264;28;20047;-90
2021/09/15 04:04:00;;;;;;;19.98;15.77;;;;;;;14.47;100.00;97991.41;5128715;28;20026;-87
2021/09/15 04:06:25;;;;;;;20.85;16.88;;;;;;;14.67;100.00;97993.53;5135918;27;20019;-83
2021/09/15 04:08:51;;;;;;;20.52;17.08;;;;;;;14.71;100.00;97996.47;5126830;28;20091;-91
2021/09/15 04:11:17;;;;;;;27.25;15.90;;;;;;;14.49;100.00;97997.41;5123955;28;20016;-91
2021/09/15 04:13:42;;;;;;;17.83;15.45;;;;;;;14.66;100.00;97994.66;5118794;28;20034;-83
2021/09/15 04:16:07;;;;;;;19.23;15.00;;;;;;;14.80;99.91;97997.28;5114698;28;20028;-79
2021/09/15 04:18:33;;;;;;;16.88;14.85;;;;;;;14.64;99.93;97994.19;5127555;28;20020;-91
2021/09/15 04:20:58;;;;;;;19.00;16.63;;;;;;;14.64;100.00;97994.19;5135089;28;20030;-84
2021/09/15 04:23:31;;;;;;;17.55;14.30;;;;;;;14.82;99.24;97997.78;5134936;28;20050;-87
2021/09/15 04:31:26;;;;;;;17.38;14.13;;;;;;;14.78;99.41;98003.16;5124680;28;20056;-94
2021/09/15 04:33:54;;;;;;;26.25;15.57;;;;;;;14.58;100.00;98006.47;5120282;28;20088;-90
2021/09/15 04:36:21;;;;;;;19.48;14.73;;;;;;;14.34;100.00;97997.84;5116409;28;20019;-75
2021/09/15 04:38:47;;;;;;;25.55;15.40;;;;;;;14.26;100.00;98015.06;5121853;28;20031;-91
2021/09/15 04:41:13;;;;;;;17.38;14.75;;;;;;;14.17;100.00;98016.97;5120645;28;20466;-83
2021/09/15 04:43:39;;;;;;;22.25;15.93;;;;;;;14.09;100.00;98015.00;5118722;28;20495;-90
2021/09/15 04:46:05;;;;;;;19.30;16.02;;;;;;;14.18;100.00;98026.88;5122181;28;20076;-94
2021/09/15 04:48:30;;;;;;;22.52;16.38;;;;;;;14.25;100.00;98024.47;5123132;28;20011;-86
2021/09/15 04:50:56;;;;;;;19.08;15.65;;;;;;;14.44;100.00;98027.81;5114636;28;20091;-87
2021/09/15 04:53:21;;;;;;;19.35;16.10;;;;;;;14.41;100.00;98026.50;5115648;28;20487;-87
2021/09/15 04:55:47;;;;;;;19.60;15.02;;;;;;;14.26;100.00;98020.59;5115491;27;20533;-90
2021/09/15 04:58:13;;;;;;;18.35;14.27;;;;;;;14.44;100.00;98020.34;5115570;28;20031;-86
2021/09/15 05:00:41;;;;;;;15.75;14.10;;;;;;;14.63;99.69;98020.09;5119521;28;20412;-87
2021/09/15 05:03:06;;;;;;;17.20;15.40;;;;;;;14.70;99.62;98025.94;5115790;28;20019;-86
2021/09/15 05:05:32;;;;;;;18.40;14.60;;;;;;;14.73;98.76;98022.56;5115977;28;20043;-93
2021/09/15 05:07:57;;;;;;;23.58;14.20;;;;;;;14.72;98.69;98034.69;5116151;28;20028;-95
2021/09/15 05:10:26;;;;;;;17.25;14.27;;;;;;;15.10;96.97;98034.13;5121214;28;20044;-86
2021/09/15 05:12:52;;;;;;;20.13;13.65;;;;;;;14.97;97.96;98033.94;5117958;28;20015;-90
2021/09/15 05:15:18;;;;;;;19.23;13.98;;;;;;;15.05;97.31;98048.03;5115999;28;20484;-83
2021/09/15 05:17:43;;;;;;;15.43;13.65;;;;;;;14.71;99.47;98046.84;5110842;28;20036;-84
2021/09/15 05:20:10;;;;;;;25.98;15.95;;;;;;;14.72;100.00;98042.94;5111183;28;20027;-85
2021/09/15 05:22:35;;;;;;;20.40;16.45;;;;;;;14.87;99.43;98042.53;5111214;28;20477;-77
2021/09/15 05:25:00;;;;;;;17.80;14.88;;;;;;;15.02;98.35;98044.00;5113367;28;20074;-80
2021/09/15 05:27:26;;;;;;;20.90;16.65;;;;;;;15.29;95.95;98046.44;5112635;28;20020;-84
2021/09/15 05:29:51;;;;;;;21.02;14.77;;;;;;;15.34;95.84;98037.22;5112543;28;20102;-82
2021/09/15 05:32:17;;;;;;;17.88;15.23;;;;;;;15.49;94.90;98042.28;5111750;27;20102;-86
2021/09/15 05:34:43;;;;;;;34.42;16.67;;;;;;;15.40;94.76;98041.44;5110834;28;20023;-79
2021/09/15 05:37:08;;;;;;;22.58;14.15;;;;;;;15.41;94.83;98034.81;5111801;28;20028;-82
2021/09/15 05:39:34;;;;;;;17.48;14.35;;;;;;;15.89;92.45;98038.16;5111461;28;20030;-75
2021/09/15 05:41:59;;;;;;;21.02;14.80;;;;;;;15.94;91.95;98037.97;5110126;28;20032;-75
2021/09/15 05:44:25;;;;;;;22.75;14.95;;;;;;;15.74;92.59;98033.16;5109885;28;20020;-77
2021/09/15 05:46:50;;;;;;;26.48;15.07;;;;;;;15.49;93.78;98031.25;5111349;28;20054;-76
2021/09/15 05:49:16;;;;;;;26.80;19.02;;;;;;;15.57;93.31;98033.19;5111740;28;20049;-76
2021/09/15 05:51:41;;;;;;;27.00;18.33;;;;;;;15.62;93.39;98030.28;5109968;28;20420;-75
2021/09/15 05:54:08;;;;;;;24.58;17.23;;;;;;;15.90;91.45;98037.03;5110515;28;20101;-75
2021/09/15 05:56:33;;;;;;;21.25;16.92;;;;;;;16.16;89.91;98034.22;5113949;28;20039;-73
2021/09/15 05:58:59;;;;;;;23.67;16.70;;;;;;;16.57;88.00;98036.38;5111720;28;20028;-76
2021/09/15 06:01:24;;;;;;;23.42;16.15;;;;;;;16.71;86.80;98036.13;5110257;28;20046;-77
2021/09/15 06:03:50;;;;;;;19.35;16.33;;;;;;;16.53;86.74;98033.41;5110157;28;20024;-79
2021/09/15 06:06:15;;;;;;;23.02;17.17;;;;;;;16.66;86.36;98048.19;5110476;28;20039;-78
2021/09/15 06:08:41;;;;;;;26.92;16.30;;;;;;;16.78;85.44;98050.22;5110646;28;20769;-75
2021/09/15 06:11:06;;;;;;;27.95;16.98;;;;;;;16.79;85.88;98051.84;5108748;28;20061;-74
2021/09/15 06:13:32;;;;;;;23.83;16.92;;;;;;;16.74;85.66;98044.53;5108631;28;20027;-76
2021/09/15 06:16:00;;;;;;;20.27;16.30;;;;;;;16.86;84.75;98046.59;5111901;28;20682;-74
2021/09/15 06:18:26;;;;;;;25.05;15.95;;;;;;;16.96;84.59;98038.72;5110889;28;20028;-74
2021/09/15 06:20:52;;;;;;;20.73;15.27;;;;;;;17.07;83.49;98041.94;5112610;28;20472;-79
2021/09/15 06:23:17;;;;;;;22.85;14.73;;;;;;;17.16;83.13;98039.09;5111585;28;20027;-80
2021/09/15 06:25:43;;;;;;;26.20;15.40;;;;;;;17.38;82.46;98045.13;5111722;28;20639;-78
2021/09/15 06:28:09;;;;;;;21.27;16.85;;;;;;;17.34;82.41;98040.59;5111912;28;20451;-77
2021/09/15 06:30:35;;;;;;;24.38;14.43;;;;;;;17.75;80.60;98035.06;5112071;28;20028;-76
2021/09/15 06:33:01;;;;;;;28.20;15.38;;;;;;;18.02;78.85;98044.72;5110192;28;20023;-75
2021/09/15 06:35:26;;;;;;;18.27;14.15;;;;;;;18.16;77.60;98048.81;5108546;28;20031;-83
2021/09/15 06:37:52;;;;;;;22.02;15.05;;;;;;;17.90;78.08;98045.47;5108833;28;20023;-77
2021/09/15 06:40:18;;;;;;;29.20;14.30;;;;;;;17.62;79.51;98048.03;5108917;27;20084;-76
2021/09/15 06:42:43;;;;;;;18.80;13.77;;;;;;;17.85;78.88;98042.94;5109835;28;20023;-80
2021/09/15 06:45:09;;;;;;;18.90;14.38;;;;;;;17.74;78.45;98047.25;5109277;28;20634;-76
2021/09/15 06:47:42;;;;;;;30.73;14.23;;;;;;;17.75;78.72;98040.59;5099482;28;20031;-80
2021/09/15 06:50:09;;;;;;;15.93;13.45;;;;;;;18.20;77.62;98035.88;5124882;27;20063;-81
2021/09/15 06:52:34;;;;;;;17.77;13.70;;;;;;;18.35;76.55;98039.97;5109826;28;20030;-78
2021/09/15 06:55:00;;;;;;;21.83;15.02;;;;;;;18.54;74.92;98047.75;5116874;28;20027;-77
2021/09/15 06:57:26;;;;;;;23.52;15.30;;;;;;;18.57;74.44;98045.09;5116808;28;21416;-77
2021/09/15 06:59:52;;;;;;;22.15;14.50;;;;;;;18.71;73.77;98045.56;5116579;28;20035;-78
2021/09/15 07:02:17;;;;;;;15.13;13.32;;;;;;;18.81;74.02;98043.47;5113625;28;20082;-79
2021/09/15 07:04:42;;;;;;;19.85;13.65;;;;;;;18.81;73.08;98044.28;5111752;28;20071;-82
2021/09/15 07:07:08;;;;;;;20.92;13.18;;;;;;;19.19;72.00;98046.69;5109861;28;20480;-77
2021/09/15 07:09:33;;;;;;;15.75;13.35;;;;;;;18.80;73.34;98041.84;5109041;28;20036;-76
2021/09/15 07:11:59;;;;;;;20.90;14.00;;;;;;;18.96;72.32;98035.25;5106428;28;20031;-77
2021/09/15 07:14:24;;;;;;;16.45;12.43;;;;;;;19.56;69.98;98045.47;5108324;28;20023;-76
2021/09/15 07:16:50;;;;;;;21.50;13.15;;;;;;;19.37;70.23;98047.22;5108148;28;20019;-74
2021/09/15 07:19:16;;;;;;;15.63;12.35;;;;;;;19.67;69.28;98045.78;5108532;28;20372;-78
2021/09/15 07:21:41;;;;;;;18.33;12.95;;;;;;;21.11;64.03;98036.91;5108871;28;20039;-76
2021/09/15 07:24:07;;;;;;;15.10;12.52;;;;;;;;;;5107731;28;20035;-75
2021/09/15 07:26:32;;;;;;;12.50;11.15;;;;;;;20.75;65.06;98043.56;5108906;28;20027;-75
2021/09/15 07:28:58;;;;;;;13.50;11.38;;;;;;;20.81;63.89;98037.38;5109217;28;20460;-79
2021/09/15 07:31:23;;;;;;;21.02;11.00;;;;;;;21.36;62.78;98049.41;5109141;28;20023;-76
2021/09/15 07:33:48;;;;;;;17.05;12.15;;;;;;;21.36;62.24;98055.78;5106756;28;20031;-77
2021/09/15 07:36:14;;;;;;;12.27;10.50;;;;;;;21.60;61.60;98053.91;5107982;28;20020;-77
2021/09/15 07:38:39;;;;;;;15.15;12.20;;;;;;;21.43;61.74;98049.56;5105726;28;20019;-76
2021/09/15 07:41:05;;;;;;;12.07;10.73;;;;;;;22.08;59.36;98050.56;5108146;28;20415;-83
2021/09/15 07:43:31;;;;;;;13.38;11.23;;;;;;;21.94;59.31;98061.44;5108580;28;20023;-80
2021/09/15 07:45:57;;;;;;;16.20;9.30;;;;;;;21.72;59.89;98065.72;5108526;28;20085;-77
2021/09/15 07:48:24;;;;;;;14.35;10.43;;;;;;;21.85;59.42;98061.63;5108415;28;20031;-75
2021/09/15 07:50:50;;;;;;;12.73;10.30;;;;;;;21.43;61.16;98057.09;5104511;28;20047;-77
2021/09/15 07:53:16;;;;;;;17.50;10.27;;;;;;;21.97;59.09;98060.69;5107224;28;20012;-77
2021/09/15 07:55:42;;;;;;;11.57;9.68;;;;;;;22.84;56.08;98052.38;5107256;28;20427;-77
2021/09/15 07:58:07;;;;;;;12.93;9.88;;;;;;;24.36;51.94;98067.69;5109045;28;20023;-79
2021/09/15 08:00:33;;;;;;;18.05;9.82;;;;;;;24.39;52.33;98058.53;5113956;28;20161;-80
2021/09/15 08:03:00;;;;;;;12.85;9.50;;;;;;;23.36;53.48;98054.41;5116384;28;20028;-75
2021/09/15 08:05:25;;;;;;;16.58;10.25;;;;;;;24.73;49.76;98064.84;5109609;28;20039;-78
2021/09/15 08:07:50;;;;;;;11.02;8.35;;;;;;;26.12;45.96;98059.81;5112324;28;20030;-80
2021/09/15 08:10:17;;;;;;;15.65;9.18;;;;;;;26.40;44.44;98057.13;5112721;28;20028;-76
2021/09/15 08:12:43;;;;;;;11.68;8.75;;;;;;;26.08;46.11;98064.59;5113612;28;20030;-77
2021/09/15 08:15:09;;;;;;;11.38;8.07;;;;;;;26.93;44.03;98056.44;5113931;28;20115;-77
2021/09/15 08:17:34;;;;;;;10.32;7.65;;;;;;;26.08;45.02;98065.41;5114428;28;20076;-77
2021/09/15 08:20:00;;;;;;;12.50;8.18;;;;;;;26.90;43.10;98058.03;5111098;28;20031;-76
2021/09/15 08:22:25;;;;;;;11.95;8.60;;;;;;;26.69;43.40;98060.00;5122863;28;20023;-75
2021/09/15 08:24:51;;;;;;;9.30;7.68;;;;;;;27.28;42.17;98056.41;5118287;28;20024;-75
2021/09/15 08:27:16;;;;;;;10.10;8.27;;;;;;;27.02;42.86;98056.81;5112934;28;20031;-79
2021/09/15 08:29:42;;;;;;;14.05;7.47;;;;;;;27.76;41.55;98053.09;5113997;28;20027;-79
2021/09/15 08:32:07;;;;;;;12.73;8.02;;;;;;;27.18;42.18;98051.59;5112799;28;20119;-75
2021/09/15 08:34:34;;;;;;;12.30;9.20;;;;;;;27.55;41.28;98053.97;5114833;28;20023;-77
2021/09/15 08:36:59;;;;;;;11.35;7.68;;;;;;;27.90;40.84;98051.06;5111923;28;20177;-76
2021/09/15 08:39:26;;;;;;;16.88;7.97;;;;;;;28.56;39.34;98046.34;5113950;28;20107;-76
2021/09/15 08:41:53;;;;;;;17.02;8.88;;;;;;;27.93;40.86;98046.63;5112347;28;20506;-76
2021/09/15 08:44:20;;;;;;;16.63;7.72;;;;;;;29.18;38.21;98048.28;5114977;28;20026;-77
2021/09/15 08:46:45;;;;;;;12.90;7.22;;;;;;;30.06;36.00;98046.59;5114958;28;20031;-76
2021/09/15 08:49:11;;;;;;;12.82;7.22;;;;;;;29.72;36.79;98049.41;5112804;28;20490;-77
2021/09/15 08:51:36;;;;;;;15.90;7.30;;;;;;;29.87;35.91;98042.41;5112371;28;20023;-78
2021/09/15 08:54:03;;;;;;;11.15;6.20;;;;;;;29.11;37.78;98037.06;5111774;28;20476;-77
2021/09/15 08:56:28;;;;;;;15.73;7.03;;;;;;;30.30;35.41;98045.47;5112127;28;20042;-78
2021/09/15 08:58:54;;;;;;;13.02;7.05;;;;;;;30.21;35.41;98036.72;5112890;28;20105;-75
2021/09/15 09:01:23;;;;;;;10.52;7.15;;;;;;;29.85;35.61;98035.59;5111950;28;20057;-78
2021/09/15 09:03:54;;;;;;;13.32;6.50;;;;;;;30.14;35.86;98026.31;5109633;28;20024;-76
2021/09/15 09:06:22;;;;;;;6.80;6.10;;;;;;;32.14;32.33;98031.06;5112736;28;20452;-78
2021/09/15 09:08:57;;;;;;;14.68;6.57;;;;;;;29.78;35.71;98025.16;5109123;28;20031;-75
2021/09/15 09:11:31;;;;;;;8.23;6.20;;;;;;;29.46;36.58;98017.03;5105845;28;20022;-79
2021/09/15 09:14:03;;;;;;;10.80;6.45;;;;;;;30.69;34.55;98022.34;5116304;27;20023;-75
2021/09/15 09:16:45;;;;;;;8.98;6.30;;;;;;;30.15;35.41;98016.63;5131309;27;20022;-78
2021/09/15 09:19:16;;;;;;;6.45;5.75;;;;;;;30.38;34.93;98013.09;5114741;28;20547;-75
2021/09/15 09:21:46;;;;;;;16.13;5.97;;;;;;;31.38;33.73;98020.81;5112208;28;20052;-78
2021/09/15 09:24:13;;;;;;;13.25;6.75;;;;;;;31.03;33.42;98013.75;5110152;28;20039;-76
2021/09/15 09:26:57;;;;;;;10.23;6.32;;;;;;;32.19;32.21;97999.41;5111478;28;20034;-75
2021/09/15 09:29:27;;;;;;;13.32;5.90;;;;;;;32.87;31.45;98008.75;5111795;28;20023;-77
2021/09/15 09:32:05;;;;;;;8.98;5.55;;;;;;;31.71;32.96;97999.97;5111599;27;20031;-73
2021/09/15 09:34:52;;;;;;;8.80;5.70;;;;;;;32.25;31.67;97989.94;5107079;28;20027;-76
2021/09/15 09:37:21;;;;;;;8.95;6.25;;;;;;;34.18;28.53;97990.22;5110001;28;20043;-75
2021/09/15 09:39:54;;;;;;;6.60;5.25;;;;;;;34.41;28.11;97992.75;5109358;28;20047;-76
2021/09/15 09:42:22;;;;;;;9.95;6.18;;;;;;;31.45;32.40;97979.03;5109713;28;20028;-73
2021/09/15 09:44:49;;;;;;;9.20;5.90;;;;;;;32.24;31.78;97979.84;5110609;28;20088;-75
2021/09/15 09:47:23;;;;;;;11.52;5.05;;;;;;;33.29;30.04;97983.41;5110572;28;20476;-76
2021/09/15 09:50:01;;;;;;;6.10;4.50;;;;;;;33.26;30.37;97985.09;5108526;28;20015;-75
2021/09/15 09:52:27;;;;;;;10.45;6.22;;;;;;;33.82;29.79;97967.75;5107988;28;20035;-75
2021/09/15 09:54:59;;;;;;;12.48;6.00;;;;;;;34.05;29.01;97980.88;5113918;28;20015;-77
2021/09/15 09:57:27;;;;;;;8.80;5.05;;;;;;;34.30;28.25;97975.25;5113352;28;20077;-77
2021/09/15 09:59:54;;;;;;;7.00;5.20;;;;;;;34.68;28.55;97973.22;5116834;28;20022;-77
2021/09/15 10:02:19;;;;;;;11.10;4.90;;;;;;;34.70;28.10;97970.75;5113470;27;20118;-77
2021/09/15 10:04:45;;;;;;;8.35;4.50;;;;;;;33.75;29.38;97959.44;5113206;28;20138;-76
2021/09/15 10:07:14;;;;;;;5.07;4.18;;;;;;;35.41;27.55;97966.28;5110370;28;20055;-77
2021/09/15 10:09:43;;;;;;;8.00;4.03;;;;;;;35.85;26.63;97969.19;5105818;27;20027;-77
2021/09/15 10:12:10;;;;;;;9.50;3.67;;;;;;;35.19;27.04;97956.91;5110196;28;20476;-76
2021/09/15 10:14:36;;;;;;;10.15;4.07;;;;;;;36.13;26.03;97961.63;5110706;28;20774;-76
2021/09/15 10:17:07;;;;;;;6.18;3.45;;;;;;;35.75;25.46;97961.81;5114572;28;20015;-76
2021/09/15 10:19:39;;;;;;;4.68;2.95;;;;;;;34.96;27.45;97965.78;5116443;28;20040;-75
2021/09/15 10:22:05;;;;;;;8.85;4.13;;;;;;;33.77;27.17;97949.22;5107726;28;20472;-76
2021/09/15 10:24:51;;;;;;;17.17;3.90;;;;;;;34.42;26.44;97960.25;5110871;28;20050;-74
2021/09/15 10:27:18;;;;;;;8.93;3.75;;;;;;;35.18;25.40;97963.06;5106228;28;20079;-76
2021/09/15 10:29:59;;;;;;;16.15;3.50;;;;;;;36.21;24.31;97948.69;5110108;28;20040;-77
2021/09/15 10:32:34;;;;;;;11.05;3.45;;;;;;;36.35;23.85;97950.97;5106454;28;20118;-77
2021/09/15 10:35:01;;;;;;;5.72;2.60;;;;;;;35.49;24.18;97941.97;5106216;28;20035;-78
2021/09/15 10:37:27;;;;;;;5.18;2.85;;;;;;;36.00;23.65;97936.84;5110341;28;20115;-78
2021/09/15 10:40:09;;;;;;;4.53;2.95;;;;;;;34.94;24.72;97946.34;5109055;28;20123;-77
2021/09/15 10:42:47;;;;;;;4.18;3.20;;;;;;;35.06;24.66;97941.09;5109691;28;20121;-76
2021/09/15 10:45:17;;;;;;;4.00;3.03;;;;;;;35.12;24.46;97944.97;5109316;28;20115;-78
2021/09/15 10:47:43;;;;;;;2.63;2.30;;;;;;;35.27;24.51;97946.06;5104898;28;20484;-74
2021/09/15 10:50:11;;;;;;;5.60;3.03;;;;;;;34.76;24.85;97945.38;5111517;28;20086;-78
2021/09/15 10:52:43;;;;;;;8.07;3.05;;;;;;;35.05;24.58;97945.19;5111260;28;20110;-76
2021/09/15 10:55:20;;;;;;;9.63;3.33;;;;;;;34.40;25.13;97940.00;5110817;28;20031;-75
2021/09/15 10:57:50;;;;;;;7.82;3.50;;;;;;;33.18;26.75;97935.47;5111519;28;20020;-78
2021/09/15 11:00:16;;;;;;;3.17;2.85;;;;;;;32.99;27.22;97927.03;5111175;28;20048;-78
2021/09/15 11:02:43;;;;;;;6.15;2.80;;;;;;;32.13;28.41;97925.50;5110222;28;20085;-78
2021/09/15 11:05:26;;;;;;;5.40;3.17;;;;;;;31.81;28.85;97914.84;5109428;28;20053;-78
2021/09/15 11:07:53;;;;;;;5.50;3.40;;;;;;;31.45;29.34;97916.03;5108305;28;20387;-73
2021/09/15 11:10:34;;;;;;;3.60;3.13;;;;;;;30.93;30.08;97907.28;5110130;28;20024;-77
2021/09/15 11:12:59;;;;;;;3.92;3.10;;;;;;;30.71;29.91;97907.69;5111035;28;20004;-84
2021/09/15 11:15:27;;;;;;;4.60;3.30;;;;;;;30.44;30.06;97897.66;5123790;28;20030;-84
2021/09/15 11:17:52;;;;;;;7.88;2.95;;;;;;;30.52;29.81;97893.47;5122135;28;20500;-82
2021/09/15 11:20:19;;;;;;;5.07;3.45;;;;;;;30.46;30.57;97886.72;5133066;28;20089;-83
2021/09/15 11:22:46;;;;;;;9.35;2.88;;;;;;;30.77;30.05;97882.53;5135118;28;20043;-83